Observation data for Post on 01/19/2019      Previous  Date  Next       Current Mesonet Observations  Soil Data  Daily Summary Page  Observations in Plain Language
KPT1 190600Z 33025G32KT 03/M03 A3004 RMK A01 T00321028  RH  065%=      5-min Rain = 0
KPT1 190605Z 34027G38KT 03/M02 A3004 RMK A01 T00291023  RH  069%=      5-min Rain = 0
KPT1 190610Z 34022G31KT 03/M02 A3004 RMK A01 T00291023  RH  069%=      5-min Rain = 0
KPT1 190615Z 33024G33KT 03/M02 A3005 RMK A01 T00281021  RH  071%=      5-min Rain = 0
KPT1 190620Z 34021G29KT 03/M02 A3005 RMK A01 T00251017  RH  075%=      5-min Rain = 0
KPT1 190625Z 34015G22KT 03/M02 A3005 RMK A01 T00251015  RH  076%=      5-min Rain = 0
KPT1 190630Z 34016G23KT 03/M02 A3005 RMK A01 T00271016  RH  074%=      5-min Rain = 0
KPT1 190635Z 33023G34KT 03/M02 A3005 RMK A01 T00301022  RH  069%=      5-min Rain = 0
KPT1 190640Z 33024G32KT 03/M02 A3006 RMK A01 T00291024  RH  069%=      5-min Rain = 0
KPT1 190645Z 33022G30KT 03/M02 A3006 RMK A01 T00271022  RH  071%=      5-min Rain = 0
KPT1 190650Z 33022G31KT 03/M02 A3006 RMK A01 T00251019  RH  073%=      5-min Rain = 0
KPT1 190655Z 33017G23KT 02/M02 A3006 RMK A01 T00241018  RH  075%=      5-min Rain = 0
KPT1 190700Z 33017KT 02/M02 A3007 RMK A01 T00221015  RH  077%=      5-min Rain = 0
KPT1 190705Z 33017G22KT 02/M01 A3007 RMK A01 T00221013  RH  079%=      5-min Rain = 0
KPT1 190710Z 33016KT 02/M01 A3007 RMK A01 T00211011  RH  080%=      5-min Rain = 0
KPT1 190715Z 33016KT 02/M01 A3007 RMK A01 T00201009  RH  082%=      5-min Rain = 0
KPT1 190720Z 33016G21KT 02/M01 A3007 RMK A01 T00201009  RH  083%=      5-min Rain = 0
KPT1 190725Z 33017G22KT 02/M01 A3007 RMK A01 T00201009  RH  082%=      5-min Rain = 0
KPT1 190730Z 33016G23KT 02/M01 A3008 RMK A01 T00211011  RH  080%=      5-min Rain = 0
KPT1 190735Z 33017G25KT 02/M01 A3008 RMK A01 T00211012  RH  080%=      5-min Rain = 0
KPT1 190740Z 33018G23KT 02/M01 A3008 RMK A01 T00211012  RH  079%=      5-min Rain = 0
KPT1 190745Z 33016G24KT 02/M01 A3008 RMK A01 T00211012  RH  080%=      5-min Rain = 0
KPT1 190750Z 33017G23KT 02/M01 A3008 RMK A01 T00211011  RH  080%=      5-min Rain = 0
KPT1 190755Z 33015G22KT 02/M01 A3008 RMK A01 T00221011  RH  080%=      5-min Rain = 0
KPT1 190800Z 33013G20KT 02/M01 A3009 RMK A01 T00221011  RH  080%=      5-min Rain = 0
KPT1 190805Z 32013G20KT 02/M01 A3009 RMK A01 T00231011  RH  079%=      5-min Rain = 0
KPT1 190810Z 32013G20KT 02/M01 A3009 RMK A01 T00241011  RH  079%=      5-min Rain = 0
KPT1 190815Z 32015G20KT 03/M01 A3009 RMK A01 T00261012  RH  077%=      5-min Rain = 0
KPT1 190820Z 32014G20KT 03/M01 A301 RMK A01 T00271013  RH  076%=      5-min Rain = 0
KPT1 190825Z 33016G21KT 03/M02 A301 RMK A01 T00281015  RH  074%=      5-min Rain = 0
KPT1 190830Z 33018G25KT 03/M02 A301 RMK A01 T00291017  RH  072%=      5-min Rain = 0
KPT1 190835Z 33016G22KT 03/M02 A301 RMK A01 T00291019  RH  072%=      5-min Rain = 0
KPT1 190840Z 33015G21KT 03/M02 A301 RMK A01 T00281020  RH  072%=      5-min Rain = 0
KPT1 190845Z 33016G24KT 03/M02 A301 RMK A01 T00271021  RH  072%=      5-min Rain = 0
KPT1 190850Z 33017G23KT 03/M02 A301 RMK A01 T00251023  RH  071%=      5-min Rain = 0
KPT1 190855Z 32017G25KT 03/M02 A301 RMK A01 T00251024  RH  071%=      5-min Rain = 0
KPT1 190900Z 33017G26KT 02/M03 A301 RMK A01 T00241026  RH  070%=      5-min Rain = 0
KPT1 190905Z 33020G28KT 02/M03 A3011 RMK A01 T00241028  RH  069%=      5-min Rain = 0
KPT1 190910Z 32018G23KT 02/M03 A3011 RMK A01 T00221028  RH  070%=      5-min Rain = 0
KPT1 190915Z 32016G22KT 02/M03 A3011 RMK A01 T00211027  RH  072%=      5-min Rain = 0
KPT1 190920Z 32018G25KT 02/M03 A3011 RMK A01 T00201027  RH  072%=      5-min Rain = 0
KPT1 190925Z 32020G26KT 02/M03 A3012 RMK A01 T00201029  RH  071%=      5-min Rain = 0
KPT1 190930Z 32020G26KT 02/M03 A3012 RMK A01 T00201031  RH  070%=      5-min Rain = 0
KPT1 190935Z 32019G25KT 02/M03 A3012 RMK A01 T00191032  RH  070%=      5-min Rain = 0
KPT1 190940Z 32019G28KT 02/M03 A3012 RMK A01 T00191034  RH  069%=      5-min Rain = 0
KPT1 190945Z 32020G26KT 02/M04 A3013 RMK A01 T00181035  RH  069%=      5-min Rain = 0
KPT1 190950Z 33020G27KT 02/M04 A3013 RMK A01 T00181037  RH  068%=      5-min Rain = 0
KPT1 190955Z 32019G27KT 02/M04 A3013 RMK A01 T00171037  RH  068%=      5-min Rain = 0
KPT1 191000Z 33019G27KT 02/M04 A3013 RMK A01 T00161037  RH  068%=      5-min Rain = 0
KPT1 191005Z 32018G25KT 02/M04 A3014 RMK A01 T00161038  RH  068%=      5-min Rain = 0
KPT1 191010Z 32019G27KT 02/M04 A3014 RMK A01 T00151038  RH  069%=      5-min Rain = 0
KPT1 191015Z 32019G25KT 01/M04 A3014 RMK A01 T00141038  RH  069%=      5-min Rain = 0
KPT1 191020Z 32019G32KT 01/M04 A3015 RMK A01 T00141038  RH  069%=      5-min Rain = 0
KPT1 191025Z 32020G30KT 01/M04 A3015 RMK A01 T00141038  RH  069%=      5-min Rain = 0
KPT1 191030Z 33022G33KT 02/M04 A3015 RMK A01 T00151038  RH  068%=      5-min Rain = 0
KPT1 191035Z 32017G26KT 01/M04 A3015 RMK A01 T00131038  RH  070%=      5-min Rain = 0
KPT1 191040Z 32017G23KT 01/M04 A3016 RMK A01 T00111037  RH  071%=      5-min Rain = 0
KPT1 191045Z 32019G27KT 01/M04 A3016 RMK A01 T00111036  RH  072%=      5-min Rain = 0
KPT1 191050Z 32020G29KT 01/M04 A3016 RMK A01 T00111038  RH  070%=      5-min Rain = 0
KPT1 191055Z 32021G28KT 01/M04 A3017 RMK A01 T00111040  RH  070%=      5-min Rain = 0
KPT1 191100Z 32018G25KT 01/M04 A3017 RMK A01 T00091040  RH  070%=      5-min Rain = 0
KPT1 191105Z 32020G28KT 01/M04 A3017 RMK A01 T00091041  RH  070%=      5-min Rain = 0
KPT1 191110Z 32020G28KT 01/M04 A3018 RMK A01 T00091043  RH  069%=      5-min Rain = 0
KPT1 191115Z 32020G28KT 01/M04 A3018 RMK A01 T00081043  RH  069%=      5-min Rain = 0
KPT1 191120Z 32020G27KT 01/M04 A3018 RMK A01 T00081043  RH  069%=      5-min Rain = 0
KPT1 191125Z 32020G29KT 01/M04 A3018 RMK A01 T00081043  RH  070%=      5-min Rain = 0
KPT1 191130Z 32019G25KT 01/M04 A3018 RMK A01 T00071042  RH  070%=      5-min Rain = 0
KPT1 191135Z 32018G26KT 01/M04 A3018 RMK A01 T00071042  RH  071%=      5-min Rain = 0
KPT1 191140Z 32018G25KT 01/M04 A3018 RMK A01 T00071042  RH  071%=      5-min Rain = 0
KPT1 191145Z 32018G24KT 01/M04 A3018 RMK A01 T00071042  RH  071%=      5-min Rain = 0
KPT1 191150Z 32018G24KT 01/M04 A3018 RMK A01 T00061042  RH  071%=      5-min Rain = 0
KPT1 191155Z 32018G26KT 01/M04 A3019 RMK A01 T00061042  RH  071%=      5-min Rain = 0
KPT1 191200Z 32018G26KT 01/M04 A3019 RMK A01 T00061042  RH  071%=      5-min Rain = 0
KPT1 191205Z 32020G26KT 01/M04 A3019 RMK A01 T00071042  RH  071%=      5-min Rain = 0
KPT1 191210Z 32017G23KT 01/M04 A3019 RMK A01 T00061042  RH  071%=      5-min Rain = 0
KPT1 191215Z 33017G23KT 01/M04 A302 RMK A01 T00051041  RH  072%=      5-min Rain = 0
KPT1 191220Z 33016G22KT 01/M04 A302 RMK A01 T00051041  RH  072%=      5-min Rain = 0
KPT1 191225Z 33016G21KT 01/M04 A302 RMK A01 T00051041  RH  072%=      5-min Rain = 0
KPT1 191230Z 33015G20KT 01/M04 A302 RMK A01 T00051041  RH  072%=      5-min Rain = 0
KPT1 191235Z 34016G21KT 01/M04 A302 RMK A01 T00051041  RH  072%=      5-min Rain = 0
KPT1 191240Z 34014G21KT 01/M04 A3021 RMK A01 T00051041  RH  072%=      5-min Rain = 0
KPT1 191245Z 33016G22KT 01/M04 A3021 RMK A01 T00061041  RH  072%=      5-min Rain = 0
KPT1 191250Z 33016G22KT 01/M04 A3021 RMK A01 T00061041  RH  072%=      5-min Rain = 0
KPT1 191255Z 33016G21KT 01/M04 A3022 RMK A01 T00051041  RH  072%=      5-min Rain = 0
KPT1 191300Z 33014G19KT 00/M04 A3022 RMK A01 T00041041  RH  073%=      5-min Rain = 0
KPT1 191305Z 33014KT 00/M04 A3023 RMK A01 T00041042  RH  072%=      5-min Rain = 0
KPT1 191310Z 33011KT 00/M04 A3023 RMK A01 T00021042  RH  073%=      5-min Rain = 0
KPT1 191315Z 33012KT 00/M04 A3023 RMK A01 T00011042  RH  074%=      5-min Rain = 0
KPT1 191320Z 32012KT 00/04 A3023 RMK A01 T00000-42  RH  074%=      5-min Rain = 0
KPT1 191325Z 32012KT 00/04 A3023 RMK A01 T00000-41  RH  074%=      5-min Rain = 0
KPT1 191330Z 32012KT 00/04 A3023 RMK A01 T00-00-41  RH  075%=      5-min Rain = 0
KPT1 191335Z 32011KT 00/04 A3024 RMK A01 T00000-41  RH  075%=      5-min Rain = 0
KPT1 191340Z 32012G17KT 00/M04 A3024 RMK A01 T00011040  RH  075%=      5-min Rain = 0
KPT1 191345Z 33012G19KT 00/M04 A3024 RMK A01 T00021040  RH  074%=      5-min Rain = 0
KPT1 191350Z 32013KT 00/M04 A3024 RMK A01 T00031040  RH  073%=      5-min Rain = 0
KPT1 191355Z 32013G19KT 00/M04 A3025 RMK A01 T00041040  RH  073%=      5-min Rain = 0
KPT1 191400Z 32014G19KT 01/M04 A3025 RMK A01 T00061039  RH  072%=      5-min Rain = 0
KPT1 191405Z 32015G20KT 01/M04 A3025 RMK A01 T00081039  RH  071%=      5-min Rain = 0
KPT1 191410Z 32015KT 01/M04 A3026 RMK A01 T00101039  RH  071%=      5-min Rain = 0
KPT1 191415Z 32015G20KT 01/M04 A3026 RMK A01 T00121038  RH  070%=      5-min Rain = 0
KPT1 191420Z 32015G20KT 01/M04 A3026 RMK A01 T00141037  RH  069%=      5-min Rain = 0
KPT1 191425Z 31014G20KT 02/M04 A3026 RMK A01 T00161037  RH  069%=      5-min Rain = 0
KPT1 191430Z 32013G20KT 02/M04 A3027 RMK A01 T00171036  RH  068%=      5-min Rain = 0
KPT1 191435Z 32012G18KT 02/M04 A3027 RMK A01 T00181036  RH  068%=      5-min Rain = 0
KPT1 191440Z 32013KT 02/M04 A3027 RMK A01 T00201035  RH  067%=      5-min Rain = 0
KPT1 191445Z 32012KT 02/M03 A3028 RMK A01 T00221034  RH  067%=      5-min Rain = 0
KPT1 191450Z 32013G18KT 02/M03 A3028 RMK A01 T00241034  RH  066%=      5-min Rain = 0
KPT1 191455Z 32013G18KT 03/M03 A3028 RMK A01 T00271034  RH  065%=      5-min Rain = 0
KPT1 191500Z 32013KT 03/M03 A3029 RMK A01 T00291033  RH  064%=      5-min Rain = 0
KPT1 191505Z 33014KT 03/M03 A3029 RMK A01 T00311033  RH  063%=      5-min Rain = 0
KPT1 191510Z 32015G22KT 03/M03 A303 RMK A01 T00331033  RH  062%=      5-min Rain = 0
KPT1 191515Z 33015G23KT 04/M03 A303 RMK A01 T00371034  RH  060%=      5-min Rain = 0
KPT1 191520Z 33016G24KT 04/M04 A303 RMK A01 T00381035  RH  059%=      5-min Rain = 0
KPT1 191525Z 33017G25KT 04/M04 A303 RMK A01 T00401036  RH  058%=      5-min Rain = 0
KPT1 191530Z 34017G24KT 04/M04 A303 RMK A01 T00411036  RH  058%=      5-min Rain = 0
KPT1 191535Z 34016KT 04/M04 A3031 RMK A01 T00421035  RH  058%=      5-min Rain = 0
KPT1 191540Z 34015G20KT 04/M03 A3031 RMK A01 T00441034  RH  058%=      5-min Rain = 0
KPT1 191545Z 34016G21KT 05/M03 A3031 RMK A01 T00451034  RH  057%=      5-min Rain = 0
KPT1 191550Z 34014G21KT 05/M03 A3032 RMK A01 T00461034  RH  057%=      5-min Rain = 0
KPT1 191555Z 34016G21KT 05/M04 A3032 RMK A01 T00471035  RH  056%=      5-min Rain = 0
KPT1 191600Z 34017G22KT 05/M04 A3032 RMK A01 T00491036  RH  055%=      5-min Rain = 0
KPT1 191605Z 34014G21KT 05/M04 A3032 RMK A01 T00521036  RH  054%=      5-min Rain = 0
KPT1 191610Z 34018G26KT 05/M04 A3032 RMK A01 T00531039  RH  052%=      5-min Rain = 0
KPT1 191615Z 34019G25KT 05/M04 A3032 RMK A01 T00541038  RH  052%=      5-min Rain = 0
KPT1 191620Z 34016G22KT 06/M04 A3032 RMK A01 T00561037  RH  052%=      5-min Rain = 0
KPT1 191625Z 34018KT 06/M04 A3032 RMK A01 T00571038  RH  051%=      5-min Rain = 0
KPT1 191630Z 34019G25KT 06/M04 A3032 RMK A01 T00561037  RH  052%=      5-min Rain = 0
KPT1 191635Z 35016G22KT 06/M04 A3032 RMK A01 T00601036  RH  051%=      5-min Rain = 0
KPT1 191640Z 34018G23KT 06/M04 A3032 RMK A01 T00631037  RH  049%=      5-min Rain = 0
KPT1 191645Z 34017G25KT 07/M04 A3032 RMK A01 T00671036  RH  048%=      5-min Rain = 0
KPT1 191650Z 34019G28KT 07/M04 A3033 RMK A01 T00661040  RH  047%=      5-min Rain = 0
KPT1 191655Z 35019G28KT 07/M04 A3033 RMK A01 T00661041  RH  047%=      5-min Rain = 0
KPT1 191700Z 35018G26KT 07/M04 A3033 RMK A01 T00661041  RH  047%=      5-min Rain = 0
KPT1 191705Z 35016G22KT 07/M04 A3033 RMK A01 T00691039  RH  046%=      5-min Rain = 0
KPT1 191710Z 35018G26KT 07/M04 A3032 RMK A01 T00701040  RH  046%=      5-min Rain = 0
KPT1 191715Z 35017G24KT 07/M04 A3032 RMK A01 T00711040  RH  046%=      5-min Rain = 0
KPT1 191720Z 36016G23KT 07/M04 A3032 RMK A01 T00731038  RH  046%=      5-min Rain = 0
KPT1 191725Z 35015G22KT 08/M04 A3032 RMK A01 T00751038  RH  045%=      5-min Rain = 0
KPT1 191730Z 35016G21KT 08/M04 A3032 RMK A01 T00771037  RH  045%=      5-min Rain = 0
KPT1 191735Z 36016G23KT 08/M04 A3033 RMK A01 T00761038  RH  045%=      5-min Rain = 0
KPT1 191740Z 36017KT 08/M04 A3032 RMK A01 T00761037  RH  045%=      5-min Rain = 0
KPT1 191745Z 35016KT 08/M04 A3032 RMK A01 T00781036  RH  045%=      5-min Rain = 0
KPT1 191750Z 35016G23KT 08/M04 A3032 RMK A01 T00791037  RH  044%=      5-min Rain = 0
KPT1 191755Z 35016G22KT 08/M04 A3032 RMK A01 T00791036  RH  044%=      5-min Rain = 0
KPT1 191800Z 35015KT 08/M04 A3032 RMK A01 T00831036  RH  043%=      5-min Rain = 0
KPT1 191805Z 36015G22KT 08/M04 A3032 RMK A01 T00821037  RH  043%=      5-min Rain = 0
KPT1 191810Z 36014G19KT 09/M04 A3032 RMK A01 T00861036  RH  043%=      5-min Rain = 0
KPT1 191815Z 36015G20KT 09/M04 A3032 RMK A01 T00891035  RH  042%=      5-min Rain = 0
KPT1 191820Z 35015G21KT 09/M04 A3032 RMK A01 T00891036  RH  042%=      5-min Rain = 0
KPT1 191825Z 34016G21KT 09/M04 A3032 RMK A01 T00891037  RH  041%=      5-min Rain = 0
KPT1 191830Z 34016G21KT 09/M04 A3032 RMK A01 T00911037  RH  041%=      5-min Rain = 0
KPT1 191835Z 35016G21KT 09/M04 A3032 RMK A01 T00911037  RH  041%=      5-min Rain = 0
KPT1 191840Z 36016G22KT 09/M04 A3031 RMK A01 T00911038  RH  041%=      5-min Rain = 0
KPT1 191845Z 35015G21KT 09/M04 A3031 RMK A01 T00941037  RH  040%=      5-min Rain = 0
KPT1 191850Z 35017G25KT 10/M04 A3031 RMK A01 T00961039  RH  039%=      5-min Rain = 0
KPT1 191855Z 34017G24KT 10/M04 A303 RMK A01 T00961040  RH  039%=      5-min Rain = 0
KPT1 191900Z 35016G22KT 10/M04 A303 RMK A01 T00961040  RH  039%=      5-min Rain = 0
KPT1 191905Z 35015G21KT 10/M04 A303 RMK A01 T00981038  RH  039%=      5-min Rain = 0
KPT1 191910Z 34014G20KT 10/M04 A303 RMK A01 T00991037  RH  038%=      5-min Rain = 0
KPT1 191915Z 35011G17KT 10/M04 A303 RMK A01 T01031037  RH  038%=      5-min Rain = 0
KPT1 191920Z 33013G19KT 10/M04 A3029 RMK A01 T01041037  RH  037%=      5-min Rain = 0
KPT1 191925Z 33014G20KT 11/M04 A3029 RMK A01 T01071036  RH  037%=      5-min Rain = 0
KPT1 191930Z 33016G23KT 11/M04 A3029 RMK A01 T01051038  RH  037%=      5-min Rain = 0
KPT1 191935Z 33017G22KT 11/M04 A3029 RMK A01 T01051039  RH  036%=      5-min Rain = 0
KPT1 191940Z 34014G21KT 11/M04 A3029 RMK A01 T01051039  RH  036%=      5-min Rain = 0
KPT1 191945Z 33015G20KT 11/M04 A3029 RMK A01 T01091038  RH  036%=      5-min Rain = 0
KPT1 191950Z 33013G23KT 11/M04 A3028 RMK A01 T01111038  RH  035%=      5-min Rain = 0
KPT1 191955Z 33016G23KT 11/M04 A3028 RMK A01 T01121039  RH  035%=      5-min Rain = 0
KPT1 192000Z 33017G22KT 11/M04 A3028 RMK A01 T01091040  RH  035%=      5-min Rain = 0
KPT1 192005Z 32015G21KT 11/M04 A3027 RMK A01 T01101039  RH  035%=      5-min Rain = 0
KPT1 192010Z 32015G20KT 11/M04 A3027 RMK A01 T01131039  RH  035%=      5-min Rain = 0
KPT1 192015Z 33013KT 12/M04 A3027 RMK A01 T01151037  RH  035%=      5-min Rain = 0
KPT1 192020Z 32013G18KT 12/M04 A3026 RMK A01 T01171038  RH  034%=      5-min Rain = 0
KPT1 192025Z 34011G16KT 12/M04 A3026 RMK A01 T01181037  RH  034%=      5-min Rain = 0
KPT1 192030Z 32014G19KT 12/M04 A3026 RMK A01 T01171038  RH  034%=      5-min Rain = 0
KPT1 192035Z 32011G16KT 12/M04 A3026 RMK A01 T01191038  RH  034%=      5-min Rain = 0
KPT1 192040Z 33013G19KT 12/M04 A3026 RMK A01 T01221040  RH  032%=      5-min Rain = 0
KPT1 192045Z 33015G22KT 12/M04 A3026 RMK A01 T01241042  RH  032%=      5-min Rain = 0
KPT1 192050Z 33014G19KT 12/M04 A3026 RMK A01 T01231042  RH  032%=      5-min Rain = 0
KPT1 192055Z 33014KT 13/M04 A3026 RMK A01 T01251043  RH  031%=      5-min Rain = 0
KPT1 192100Z 33015G21KT 12/M04 A3026 RMK A01 T01241044  RH  031%=      5-min Rain = 0
KPT1 192105Z 34014G19KT 13/M04 A3025 RMK A01 T01251043  RH  031%=      5-min Rain = 0
KPT1 192110Z 33015G21KT 13/M04 A3025 RMK A01 T01251044  RH  031%=      5-min Rain = 0
KPT1 192115Z 34012KT 13/M04 A3025 RMK A01 T01261044  RH  031%=      5-min Rain = 0
KPT1 192120Z 34014G20KT 13/M04 A3025 RMK A01 T01271044  RH  030%=      5-min Rain = 0
KPT1 192125Z 34011G16KT 13/M04 A3025 RMK A01 T01281044  RH  030%=      5-min Rain = 0
KPT1 192130Z 33014KT 13/M05 A3025 RMK A01 T01281045  RH  030%=      5-min Rain = 0
KPT1 192135Z 33013G18KT 13/M05 A3025 RMK A01 T01281046  RH  030%=      5-min Rain = 0
KPT1 192140Z 34012G17KT 13/M05 A3025 RMK A01 T01291046  RH  029%=      5-min Rain = 0
KPT1 192145Z 33013KT 13/M05 A3026 RMK A01 T01281048  RH  029%=      5-min Rain = 0
KPT1 192150Z 33013G22KT 13/M05 A3026 RMK A01 T01291050  RH  029%=      5-min Rain = 0
KPT1 192155Z 34014G19KT 13/M05 A3026 RMK A01 T01291049  RH  029%=      5-min Rain = 0
KPT1 192200Z 33013G20KT 13/M05 A3026 RMK A01 T01271050  RH  029%=      5-min Rain = 0
KPT1 192205Z 33015KT 13/M05 A3026 RMK A01 T01271052  RH  029%=      5-min Rain = 0
KPT1 192210Z 34012KT 13/M05 A3026 RMK A01 T01271052  RH  029%=      5-min Rain = 0
KPT1 192215Z 34014G21KT 13/M05 A3026 RMK A01 T01261052  RH  029%=      5-min Rain = 0
KPT1 192220Z 34012G18KT 13/M05 A3026 RMK A01 T01261051  RH  029%=      5-min Rain = 0
KPT1 192225Z 33015G20KT 13/M05 A3026 RMK A01 T01251052  RH  029%=      5-min Rain = 0
KPT1 192230Z 34014G19KT 13/M05 A3026 RMK A01 T01251052  RH  029%=      5-min Rain = 0
KPT1 192235Z 34012G18KT 12/M05 A3026 RMK A01 T01241051  RH  029%=      5-min Rain = 0
KPT1 192240Z 34013G19KT 12/M05 A3026 RMK A01 T01241051  RH  029%=      5-min Rain = 0
KPT1 192245Z 35013KT 12/M05 A3026 RMK A01 T01221051  RH  030%=      5-min Rain = 0
KPT1 192250Z 34011G17KT 12/M05 A3026 RMK A01 T01231049  RH  030%=      5-min Rain = 0
KPT1 192255Z 34012KT 12/M05 A3026 RMK A01 T01211050  RH  030%=      5-min Rain = 0
KPT1 192300Z 35013G18KT 12/M05 A3026 RMK A01 T01191052  RH  030%=      5-min Rain = 0
KPT1 192305Z 34012G18KT 12/M05 A3026 RMK A01 T01191051  RH  030%=      5-min Rain = 0
KPT1 192310Z 34012G19KT 12/M05 A3026 RMK A01 T01181050  RH  031%=      5-min Rain = 0
KPT1 192315Z 34011G16KT 12/M05 A3026 RMK A01 T01161050  RH  031%=      5-min Rain = 0
KPT1 192320Z 34010G15KT 12/M05 A3026 RMK A01 T01151050  RH  031%=      5-min Rain = 0
KPT1 192325Z 34010KT 11/M05 A3026 RMK A01 T01141051  RH  032%=      5-min Rain = 0
KPT1 192330Z 35009KT 11/M05 A3025 RMK A01 T01121053  RH  031%=      5-min Rain = 0
KPT1 192335Z 36009KT 11/M05 A3025 RMK A01 T01101054  RH  031%=      5-min Rain = 0
KPT1 192340Z 00009KT 11/M06 A3025 RMK A01 T01081055  RH  032%=      5-min Rain = 0
KPT1 192345Z 36007KT 11/M05 A3025 RMK A01 T01061054  RH  032%=      5-min Rain = 0
KPT1 192350Z 35006KT 10/M05 A3026 RMK A01 T01031054  RH  033%=      5-min Rain = 0
KPT1 192355Z 35007KT 10/M05 A3026 RMK A01 T01011054  RH  034%=      5-min Rain = 0
KPT1 200000Z 36007KT 10/M05 A3026 RMK A01 T00971053  RH  034%=      5-min Rain = 0
KPT1 200005Z 35007KT 09/M05 A3026 RMK A01 T00941053  RH  035%=      5-min Rain = 0
KPT1 200010Z 35007KT 09/M05 A3026 RMK A01 T00901053  RH  036%=      5-min Rain = 0
KPT1 200015Z 34007KT 08/M05 A3026 RMK A01 T00841051  RH  038%=      5-min Rain = 0
KPT1 200020Z 34006KT 08/M05 A3026 RMK A01 T00811049  RH  040%=      5-min Rain = 0
KPT1 200025Z 34006KT 08/M05 A3026 RMK A01 T00781050  RH  040%=      5-min Rain = 0
KPT1 200030Z 35006KT 08/M05 A3026 RMK A01 T00781051  RH  040%=      5-min Rain = 0
KPT1 200035Z 35006KT 08/M05 A3027 RMK A01 T00791052  RH  040%=      5-min Rain = 0
KPT1 200040Z 35005KT 08/M05 A3027 RMK A01 T00791053  RH  039%=      5-min Rain = 0
KPT1 200045Z 35005KT 08/M05 A3027 RMK A01 T00761054  RH  040%=      5-min Rain = 0
KPT1 200050Z 34004KT 07/M05 A3027 RMK A01 T00691052  RH  042%=      5-min Rain = 0
KPT1 200055Z 33005KT 06/M05 A3027 RMK A01 T00631054  RH  044%=      5-min Rain = 0
KPT1 200100Z 34006KT 06/M06 A3027 RMK A01 T00571055  RH  045%=      5-min Rain = 0
KPT1 200105Z 34006KT 06/M06 A3027 RMK A01 T00551055  RH  045%=      5-min Rain = 0
KPT1 200110Z 34005KT 05/M06 A3028 RMK A01 T00541055  RH  046%=      5-min Rain = 0
KPT1 200115Z 34005KT 05/M05 A3028 RMK A01 T00541054  RH  046%=      5-min Rain = 0
KPT1 200120Z 35004KT 06/M05 A3027 RMK A01 T00561054  RH  045%=      5-min Rain = 0
KPT1 200125Z 36004KT 06/M05 A3028 RMK A01 T00581054  RH  045%=      5-min Rain = 0
KPT1 200130Z 00004KT 06/M05 A3028 RMK A01 T00591054  RH  045%=      5-min Rain = 0
KPT1 200135Z 36004KT 06/M05 A3028 RMK A01 T00591053  RH  045%=      5-min Rain = 0
KPT1 200140Z 35004KT 05/M05 A3028 RMK A01 T00541054  RH  046%=      5-min Rain = 0
KPT1 200145Z 35004KT 05/M06 A3027 RMK A01 T00501055  RH  047%=      5-min Rain = 0
KPT1 200150Z 33004KT 05/M06 A3028 RMK A01 T00481055  RH  048%=      5-min Rain = 0
KPT1 200155Z 34004KT 05/M05 A3028 RMK A01 T00521054  RH  047%=      5-min Rain = 0
KPT1 200200Z 36004KT 05/M06 A3028 RMK A01 T00491055  RH  047%=      5-min Rain = 0
KPT1 200205Z 35002KT 05/M06 A3028 RMK A01 T00471055  RH  048%=      5-min Rain = 0
KPT1 200210Z 35001KT 05/M05 A3027 RMK A01 T00491053  RH  048%=      5-min Rain = 0
KPT1 200215Z 34001KT 05/M05 A3027 RMK A01 T00521053  RH  047%=      5-min Rain = 0
KPT1 200220Z 03000KT 05/M05 A3026 RMK A01 T00501053  RH  048%=      5-min Rain = 0
KPT1 200225Z 03001KT 05/M05 A3026 RMK A01 T00541054  RH  046%=      5-min Rain = 0
KPT1 200230Z 02002KT 06/M05 A3027 RMK A01 T00591054  RH  045%=      5-min Rain = 0
KPT1 200235Z 01001KT 06/M05 A3028 RMK A01 T00591054  RH  045%=      5-min Rain = 0
KPT1 200240Z 02001KT 06/M05 A3028 RMK A01 T00571053  RH  046%=      5-min Rain = 0
KPT1 200245Z 05002KT 06/M05 A3028 RMK A01 T00581054  RH  045%=      5-min Rain = 0
KPT1 200250Z 34001KT 06/M05 A3029 RMK A01 T00561053  RH  046%=      5-min Rain = 0
KPT1 200255Z 32000KT 05/M05 A3029 RMK A01 T00511051  RH  048%=      5-min Rain = 0
KPT1 200300Z 10001KT 05/M05 A3028 RMK A01 T00461051  RH  050%=      5-min Rain = 0
KPT1 200305Z 08001KT 05/M05 A3029 RMK A01 T00481052  RH  049%=      5-min Rain = 0
KPT1 200310Z 10001KT 05/M05 A303 RMK A01 T00491053  RH  048%=      5-min Rain = 0
KPT1 200315Z 10002KT 05/M05 A303 RMK A01 T00491053  RH  048%=      5-min Rain = 0
KPT1 200320Z 10003KT 05/M05 A303 RMK A01 T00511053  RH  047%=      5-min Rain = 0
KPT1 200325Z 13003KT 05/M05 A303 RMK A01 T00481054  RH  048%=      5-min Rain = 0
KPT1 200330Z 12004KT 05/M05 A303 RMK A01 T00461053  RH  049%=      5-min Rain = 0
KPT1 200335Z 12004KT 05/M05 A303 RMK A01 T00461053  RH  049%=      5-min Rain = 0
KPT1 200340Z 12005KT 05/M05 A3029 RMK A01 T00451053  RH  049%=      5-min Rain = 0
KPT1 200345Z 11004KT 04/M05 A3029 RMK A01 T00421053  RH  051%=      5-min Rain = 0
KPT1 200350Z 11004KT 04/M05 A303 RMK A01 T00411052  RH  051%=      5-min Rain = 0
KPT1 200355Z 11003KT 04/M05 A3031 RMK A01 T00421052  RH  051%=      5-min Rain = 0
KPT1 200400Z 12004KT 04/M05 A303 RMK A01 T00401052  RH  051%=      5-min Rain = 0
KPT1 200405Z 13006KT 04/M05 A3029 RMK A01 T00361054  RH  053%=      5-min Rain = 0
KPT1 200410Z 13006KT 03/M05 A3028 RMK A01 T00321054  RH  054%=      5-min Rain = 0
KPT1 200415Z 13005KT 03/M05 A3028 RMK A01 T00301053  RH  055%=      5-min Rain = 0
KPT1 200420Z 13004KT 03/M05 A3029 RMK A01 T00311052  RH  055%=      5-min Rain = 0
KPT1 200425Z 13005KT 03/M05 A3028 RMK A01 T00311051  RH  055%=      5-min Rain = 0
KPT1 200430Z 12004KT 03/M05 A3029 RMK A01 T00311051  RH  055%=      5-min Rain = 0
KPT1 200435Z 11004KT 03/M05 A3029 RMK A01 T00321050  RH  055%=      5-min Rain = 0
KPT1 200440Z 12004KT 03/M05 A3029 RMK A01 T00301050  RH  056%=      5-min Rain = 0
KPT1 200445Z 10003KT 03/M05 A303 RMK A01 T00311049  RH  056%=      5-min Rain = 0
KPT1 200450Z 11004KT 03/M05 A3029 RMK A01 T00311050  RH  056%=      5-min Rain = 0
KPT1 200455Z 11004KT 03/M05 A3029 RMK A01 T00281050  RH  057%=      5-min Rain = 0
KPT1 200500Z 12002KT 03/M05 A303 RMK A01 T00271050  RH  058%=      5-min Rain = 0
KPT1 200505Z 15003KT 03/M05 A3029 RMK A01 T00251050  RH  059%=      5-min Rain = 0
KPT1 200510Z 13004KT 02/M05 A3029 RMK A01 T00241048  RH  059%=      5-min Rain = 0
KPT1 200515Z 14003KT 03/M05 A303 RMK A01 T00251048  RH  059%=      5-min Rain = 0
KPT1 200520Z 13004KT 03/M05 A303 RMK A01 T00251048  RH  059%=      5-min Rain = 0
KPT1 200525Z 15004KT 02/M05 A3031 RMK A01 T00241049  RH  059%=      5-min Rain = 0
KPT1 200530Z 13003KT 03/M05 A3031 RMK A01 T00251048  RH  059%=      5-min Rain = 0
KPT1 200535Z 12002KT 03/M05 A3031 RMK A01 T00271048  RH  058%=      5-min Rain = 0
KPT1 200540Z 14003KT 03/M05 A3031 RMK A01 T00271049  RH  058%=      5-min Rain = 0
KPT1 200545Z 11003KT 02/M05 A3031 RMK A01 T00241049  RH  059%=      5-min Rain = 0
KPT1 200550Z 10005KT 02/M05 A3031 RMK A01 T00221050  RH  060%=      5-min Rain = 0
KPT1 200555Z 09005KT 02/M05 A3031 RMK A01 T00181049  RH  062%=      5-min Rain = 0

Page generated in 0.0094 seconds.